• Join FlightAware (Why Join?)
  • Login
  • US Flag 
02:13AM EDT


 

Airport Tracker/Info


-or-


 

Live Flight TrackerFlight Track Log ✈ SKW5640 ✈ 11-May-2013 ✈ KDFW - KSFO

Flight Track Log - Related Links

Times and Time Zones

All times are in EDT time to prevent confusion due to time zone crossing. See the SKW5640 flight status page for this flight to view local times or setup timezone preferences in your user account.

Time Position Orientation Groundspeed Altitude Reporting Facility
EDT Latitude Longitude Course Direction KTS MPH feet Rate Location/Type
07:25AM 32.9167 -97.0500 294° West 127 146 1,200  Level Dallas / Fort Worth TRACON
07:26AM 32.9667 -97.0500 360° North 207 238 2,900 1,860 Climbing Dallas / Fort Worth TRACON
07:27AM 33.0333 -97.0667 348° North 260 299 5,200 2,220 Climbing Dallas / Fort Worth TRACON
07:28AM 32.8631 -97.4651 293° West  Level FlightAware Approximate
07:28AM 33.0333 -97.1500 270° West 276 318 7,600  Level Dallas / Fort Worth TRACON
07:29AM 32.9146 -97.5958 301° West  Level FlightAware Approximate
07:29AM 33.0233 -97.2722 264° West 286 329 10,500  Level Fort Worth Center
07:30AM 32.9645 -97.7275 294° West  Level FlightAware Approximate
07:30AM 33.0128 -97.3739 263° West 308 354 12,100  Level Fort Worth Center
07:31AM 33.0025 -97.4853 264° West 333 383 13,600 1,740 Climbing Fort Worth Center
07:32AM 32.9919 -97.6017 264° West 351 404 15,600 1,860 Climbing Fort Worth Center
07:33AM 32.9811 -97.7206 264° West 363 418 17,400 1,740 Climbing Fort Worth Center
07:34AM 32.9956 -97.8247 279° West 363 418 19,100 1,800 Climbing Fort Worth Center
07:35AM 33.0139 -97.9558 280° West 368 423 21,000 1,500 Climbing Fort Worth Center
07:36AM 33.0319 -98.0628 281° West 370 426 22,200 1,200 Climbing Fort Worth Center
07:37AM 33.0522 -98.1992 280° West 375 432 23,400 1,200 Climbing Fort Worth Center
07:38AM 33.0703 -98.3108 281° West 385 443 24,600 1,200 Climbing Fort Worth Center
07:39AM 33.0919 -98.4525 280° West 391 450 25,900 1,080 Climbing Fort Worth Center
07:40AM 33.1097 -98.5642 281° West 391 450 26,800 900 Climbing Fort Worth Center
07:41AM 33.1272 -98.6958 279° West 396 456 27,800 900 Climbing Fort Worth Center
07:42AM 33.1489 -98.8278 281° West 396 456 28,600 780 Climbing Fort Worth Center
07:43AM 33.1683 -98.9594 280° West 403 464 29,400 900 Climbing Fort Worth Center
07:44AM 33.1894 -99.0964 280° West 410 472 30,400 960 Climbing Fort Worth Center
07:45AM 33.2083 -99.2308 280° West 410 472 31,400 960 Climbing Fort Worth Center
07:46AM 33.2272 -99.3628 280° West 410 472 32,400 960 Climbing Fort Worth Center
07:47AM 33.2461 -99.4950 280° West 410 472 33,400 960 Climbing Fort Worth Center
07:48AM 33.2919 -99.6178 294° West 405 466 34,400 900 Climbing Fort Worth Center
07:49AM 33.3653 -99.7242 310° West 405 466 35,300 780 Climbing Fort Worth Center
07:50AM 33.4364 -99.8281 309° West 405 466 36,000 300 Climbing Fort Worth Center
07:51AM 33.5092 -99.9347 309° West 410 472 36,000  Level Fort Worth Center
07:52AM 33.5803 -100.0389 309° West 410 472 36,000  Level Fort Worth Center
07:53AM 33.6531 -100.1483 309° West 410 472 36,000  Level Fort Worth Center
07:54AM 33.7278 -100.2581 309° West 416 479 36,000  Level Fort Worth Center
07:55AM 33.7942 -100.3678 306° West 416 479 36,000  Level Fort Worth Center
07:56AM 33.8517 -100.4947 299° West 421 484 36,000  Level Fort Worth Center
07:57AM 33.9047 -100.6167 298° West 421 484 36,000  Level Fort Worth Center
07:58AM 33.9600 -100.7414 298° West 421 484 36,000  Level Fort Worth Center
07:59AM 34.0150 -100.8639 298° West 416 479 36,000  Level Fort Worth Center
08:00AM 34.0758 -101.0017 298° West 421 484 36,000  Level Fort Worth Center
08:01AM 34.1328 -101.1269 299° West 427 491 36,000  Level Fort Worth Center
08:02AM 34.1817 -101.2369 298° West 427 491 36,000  Level Fort Worth Center
08:03AM 34.2400 -101.3753 297° West 428 493 36,000  Level Fort Worth Center
08:05AM 34.3478 -101.6197 298° West 420 483 36,000  Level Albuquerque Center
08:06AM 34.4028 -101.7475 298° West 423 487 36,000  Level Albuquerque Center
08:07AM 34.4575 -101.8753 297° West 425 489 36,000  Level Albuquerque Center
08:08AM 34.5131 -102.0039 298° West 428 493 36,000  Level Albuquerque Center
08:09AM 34.5678 -102.1322 297° West 428 493 36,000  Level Albuquerque Center
08:10AM 34.6228 -102.2589 298° West 425 489 36,000  Level Albuquerque Center
08:11AM 34.6764 -102.3858 297° West 423 487 36,000  Level Albuquerque Center
08:12AM 34.7303 -102.5136 297° West 423 487 36,000  Level Albuquerque Center
08:13AM 34.7939 -102.6600 298° West 421 484 36,000  Level Albuquerque Center
08:14AM 34.8469 -102.7872 297° West 419 482 36,000  Level Albuquerque Center
08:15AM 34.8997 -102.9133 297° West 417 480 36,000  Level Albuquerque Center
08:16AM 34.9528 -103.0408 297° West 417 480 36,000  Level Albuquerque Center
08:17AM 35.0053 -103.1667 297° West 415 478 36,000  Level Albuquerque Center
08:18AM 35.0500 -103.2731 297° West 417 480 36,000  Level Albuquerque Center
08:19AM 35.1019 -103.4000 297° West 416 479 36,000  Level Albuquerque Center
08:20AM 35.1544 -103.5261 297° West 414 476 36,000  Level Albuquerque Center
08:21AM 35.2028 -103.6558 295° West 416 479 36,000  Level Albuquerque Center
08:22AM 35.2439 -103.7908 290° West 420 483 36,000  Level Albuquerque Center
08:23AM 35.2917 -103.9417 291° West 420 483 36,000  Level Albuquerque Center
08:24AM 35.3344 -104.0772 291° West 426 490 36,000  Level Albuquerque Center
08:25AM 35.3783 -104.2181 291° West 432 497 36,000  Level Albuquerque Center
08:26AM 35.4192 -104.3556 290° West 433 498 36,000  Level Albuquerque Center
08:27AM 35.4628 -104.4956 291° West 436 502 36,000  Level Albuquerque Center
08:28AM 35.5067 -104.6378 291° West 441 507 36,000  Level Albuquerque Center
08:29AM 35.5503 -104.7800 291° West 442 509 36,000  Level Albuquerque Center
08:30AM 35.5936 -104.9244 290° West 447 514 36,000  Level Albuquerque Center
08:31AM 35.6372 -105.0686 290° West 446 513 36,000  Level Albuquerque Center
08:32AM 35.6839 -105.2100 292° West 444 511 36,000  Level Albuquerque Center
08:33AM 35.7397 -105.3483 296° West 446 513 36,000  Level Albuquerque Center
08:34AM 35.7939 -105.4872 296° West 447 514 36,000  Level Albuquerque Center
08:35AM 35.8447 -105.6217 295° West 447 514 36,000  Level Albuquerque Center
08:36AM 35.8969 -105.7592 295° West 446 513 36,000  Level Albuquerque Center
08:37AM 35.9497 -105.8997 295° West 451 519 36,000  Level Albuquerque Center
08:38AM 36.0025 -106.0386 295° West 450 518 36,000  Level Albuquerque Center
08:39AM 36.0533 -106.1767 295° West 446 513 36,000  Level Albuquerque Center
08:40AM 36.1067 -106.3183 295° West 454 522 36,000  Level Albuquerque Center
08:41AM 36.1583 -106.4575 295° West 451 519 36,000  Level Albuquerque Center
08:42AM 36.2081 -106.5919 295° West 451 519 36,000  Level Albuquerque Center
08:43AM 36.2661 -106.7489 295° West 449 517 36,000  Level Albuquerque Center
08:44AM 36.3150 -106.8842 294° West 450 518 36,000  Level Albuquerque Center
08:45AM 36.3647 -107.0192 295° West 450 518 36,000  Level Albuquerque Center
08:46AM 36.4053 -107.1306 294° West 449 517 36,000  Level Denver Center
08:47AM 36.4622 -107.2875 294° West 448 516 36,000  Level Denver Center
08:48AM 36.5086 -107.4211 293° West 443 510 36,000  Level Denver Center
08:49AM 36.5572 -107.5553 294° West 447 514 36,000  Level Denver Center
08:50AM 36.6125 -107.7119 294° West 443 510 36,000  Level Denver Center
08:51AM 36.6619 -107.8481 294° West 449 517 36,000  Level Denver Center
08:52AM 36.7097 -107.9817 294° West 445 512 36,000  Level Denver Center
08:53AM 36.7636 -108.1378 293° West 442 509 36,000  Level Denver Center
08:54AM 36.8108 -108.2717 294° West 441 507 36,000  Level Denver Center
08:55AM 36.8578 -108.4047 294° West 439 505 36,000  Level Denver Center
08:56AM 36.9119 -108.5594 294° West 438 504 36,000  Level Denver Center
08:57AM 36.9583 -108.6908 294° West 435 501 36,000  Level Denver Center
08:58AM 37.0047 -108.8258 293° West 440 506 36,000  Level Denver Center
08:59AM 37.0592 -108.9825 294° West 440 506 36,000  Level Denver Center
09:00AM 37.1058 -109.1164 294° West 440 506 36,000  Level Denver Center
09:01AM 37.1522 -109.2489 294° West 436 502 36,000  Level Denver Center
09:02AM 37.2050 -109.4047 293° West 435 501 36,000  Level Denver Center
09:03AM 37.2497 -109.5378 293° West 435 501 36,000  Level Denver Center
09:04AM 37.2936 -109.6722 292° West 436 502 36,000  Level Denver Center
09:05AM 37.3469 -109.8256 294° West 431 496 36,000  Level Denver Center
09:06AM 37.3911 -109.9600 292° West 436 502 36,000  Level Denver Center
09:07AM 37.4364 -110.0903 294° West 426 490 36,000  Level Denver Center
09:08AM 37.4878 -110.2472 292° West 433 498 36,000  Level Denver Center
09:09AM 37.5314 -110.3811 292° West 431 496 36,000  Level Denver Center
09:10AM 37.5758 -110.5139 293° West 431 496 36,000  Level Denver Center
09:11AM 37.6183 -110.6475 292° West 433 498 36,000  Level Denver Center
09:12AM 37.6733 -110.8147 293° West 433 498 36,000  Level Denver Center
09:13AM 37.7194 -110.9544 293° West 433 498 36,000  Level Denver Center
09:14AM 37.7644 -111.0942 292° West 432 497 36,000  Level Denver Center
09:15AM 37.8097 -111.2342 292° West 432 497 36,000  Level Denver Center
09:16AM 37.8450 -111.3464 292° West 432 497 36,000  Level Salt Lake Center
09:17AM 37.8903 -111.4872 292° West 434 499 36,000  Level Salt Lake Center
09:18AM 37.9356 -111.6278 292° West 434 499 36,000  Level Salt Lake Center
09:19AM 37.9786 -111.7667 292° West 429 494 36,000  Level Salt Lake Center
09:20AM 38.0225 -111.9083 292° West 431 496 36,000  Level Salt Lake Center
09:21AM 38.0669 -112.0472 292° West 431 496 36,000  Level Salt Lake Center
09:22AM 38.1103 -112.1875 291° West 429 494 36,000  Level Salt Lake Center
09:23AM 38.1533 -112.3272 291° West 428 493 36,000  Level Salt Lake Center
09:24AM 38.1956 -112.4650 291° West 424 488 36,000  Level Salt Lake Center
09:25AM 38.2383 -112.6033 292° West 424 488 36,000  Level Salt Lake Center
09:26AM 38.2797 -112.7428 291° West 425 489 36,000  Level Salt Lake Center
09:27AM 38.3303 -112.9086 291° West 422 486 36,000  Level Salt Lake Center
09:28AM 38.3561 -113.0525 283° West 426 490 36,000  Level Salt Lake Center
09:29AM 38.3472 -113.2061 266° West 435 501 36,000  Level Salt Lake Center
09:30AM 38.3356 -113.3594 265° West 439 505 36,000  Level Salt Lake Center
09:31AM 38.3233 -113.5125 264° West 438 504 36,000  Level Salt Lake Center
09:32AM 38.3103 -113.6653 264° West 437 503 36,000  Level Salt Lake Center
09:33AM 38.2983 -113.8194 264° West 439 505 36,000  Level Salt Lake Center
09:34AM 38.2861 -113.9733 264° West 440 506 36,000  Level Salt Lake Center
09:35AM 38.2736 -114.1278 264° West 441 507 36,000  Level Salt Lake Center
09:36AM 38.2603 -114.2819 264° West 441 507 36,000  Level Salt Lake Center
09:37AM 38.2467 -114.4358 264° West 441 507 36,000  Level Salt Lake Center
09:38AM 38.2389 -114.5914 266° West 443 510 36,000  Level Salt Lake Center
09:39AM 38.2289 -114.7478 265° West 444 511 36,000  Level Salt Lake Center
09:40AM 38.2172 -114.9372 266° West 449 517 36,000  Level Salt Lake Center
09:42AM 38.2075 -115.0972 266° West 453 521 36,000  Level Salt Lake Center
09:43AM 38.1964 -115.2586 265° West 459 528 36,000  Level Salt Lake Center
09:44AM 38.1861 -115.4061 265° West 455 524 36,000  Level Salt Lake Center
09:45AM 38.1764 -115.5658 266° West 454 522 36,000  Level Salt Lake Center
09:46AM 38.1644 -115.7269 265° West 457 526 36,000  Level Salt Lake Center
09:47AM 38.1528 -115.8856 265° West 452 520 36,000  Level Salt Lake Center
09:48AM 38.1417 -116.0442 265° West 451 519 36,000  Level Salt Lake Center
09:49AM 38.1306 -116.2036 265° West 452 520 36,000  Level Salt Lake Center
09:50AM 38.1175 -116.3631 264° West 454 522 36,000  Level Salt Lake Center
09:51AM 38.1031 -116.5531 265° West 450 518 36,000  Level Salt Lake Center
09:52AM 38.0908 -116.7108 264° West 449 517 36,000  Level Salt Lake Center
09:53AM 38.0783 -116.8689 264° West 449 517 36,000  Level Salt Lake Center
09:54AM 38.0661 -117.0275 264° West 447 514 36,000  Level Salt Lake Center
09:55AM 38.0514 -117.1900 263° West 450 518 36,000  Level Salt Lake Center
09:56AM 38.0389 -117.3533 264° West 452 520 36,000  Level Salt Lake Center
09:57AM 38.0261 -117.5108 264° West 448 516 36,000  Level Salt Lake Center
09:58AM 38.0128 -117.6672 264° West 446 513 36,000  Level Salt Lake Center
09:59AM 37.9983 -117.8239 263° West 445 512 36,000  Level Oakland Center
10:00AM 37.9811 -117.9792 262° West 445 512 36,000  Level Oakland Center
10:01AM 37.9653 -118.1344 263° West 444 511 36,000  Level Oakland Center
10:02AM 37.9478 -118.2897 262° West 444 511 36,000  Level Oakland Center
10:03AM 37.9314 -118.4439 262° West 442 509 36,000  Level Oakland Center
10:04AM 37.9142 -118.5983 262° West 443 510 36,000  Level Oakland Center
10:05AM 37.8975 -118.7511 262° West 441 507 36,000  Level Oakland Center
10:06AM 37.8806 -118.9042 262° West 438 504 36,000  Level Oakland Center
10:07AM 37.8594 -119.0836 262° West 440 506 36,000  Level Oakland Center
10:08AM 37.8411 -119.2358 261° West 440 506 36,000  Level Oakland Center
10:09AM 37.8244 -119.3883 262° West 438 504 36,000  Level Oakland Center
10:10AM 37.8075 -119.5400 262° West 437 503 36,000  Level Oakland Center
10:11AM 37.7897 -119.6908 262° West 435 501 36,000  Level Oakland Center
10:12AM 37.7697 -119.8458 261° West 438 504 36,000  Level Oakland Center
10:13AM 37.7503 -119.9972 261° West 438 504 36,000  Level Oakland Center
10:14AM 37.7319 -120.1497 261° West 437 503 36,000 -300 Level Oakland Center
10:15AM 37.7119 -120.3014 261° West 437 503 35,500 -1,680 Descending Oakland Center
10:16AM 37.6931 -120.4594 261° West 451 519 32,700 -2,940 Descending Oakland Center
10:17AM 37.6728 -120.6161 261° West 451 519 29,600 -3,180 Descending Oakland Center
10:18AM 37.6500 -120.7333 256° West 444 511 27,400 -3,240 Descending Northern Cal TRACON
10:19AM 37.6333 -120.8833 262° West 433 498 24,200 -3,060 Descending Northern Cal TRACON
10:20AM 37.6167 -121.0333 262° West 424 488 21,300 -2,940 Descending Northern Cal TRACON
10:21AM 37.6000 -121.1667 261° West 412 474 18,400 -3,000 Descending Northern Cal TRACON
10:22AM 37.5833 -121.3000 261° West 398 458 15,400 -3,000 Descending Northern Cal TRACON
10:23AM 37.5833 -121.4167 270° West 383 441 12,700 -2,400 Descending Northern Cal TRACON
10:24AM 37.5667 -121.5500 261° West 352 405 10,900 -900 Descending Northern Cal TRACON
10:25AM 37.5667 -121.6500 270° West 277 319 11,000 -420 Climbing Northern Cal TRACON
10:26AM 37.6000 -121.7167 302° West 257 296 10,100 -960 Descending Northern Cal TRACON
10:27AM 37.5667 -121.7667 230° Southwest 245 282 9,200 -1,020 Descending Northern Cal TRACON
10:27AM 37.5000 -121.8167 211° Southwest 245 282 8,300 -660 Descending Northern Cal TRACON
10:28AM 37.4833 -121.8833 253° West 244 281 8,000 -480 Descending Northern Cal TRACON
10:29AM 37.4667 -121.9667 256° West 224 258 7,400 -1,020 Descending Northern Cal TRACON
10:30AM 37.4667 -122.0333 270° West 213 245 6,100 -1,080 Descending Northern Cal TRACON
10:31AM 37.5000 -122.0833 310° West 206 237 5,400 -1,200 Descending Northern Cal TRACON
10:32AM 37.5211 -122.1400 295° West 203 234 3,800 -1,380 Descending Oakland Center
10:33AM 37.5464 -122.2000 298° West 199 229 2,700 -960 Descending Oakland Center
10:34AM 37.5686 -122.2514 299° West 183 211 1,900 -840 Descending Oakland Center